createdAt,value
2019-05-25T00:01:20.194Z,1.57
2019-05-25T00:03:47.375Z,1.80
2019-05-25T00:06:14.557Z,1.40
2019-05-25T00:08:41.560Z,1.80
2019-05-25T00:11:08.701Z,1.43
2019-05-25T00:13:35.897Z,1.83
2019-05-25T00:16:03.159Z,1.97
2019-05-25T00:18:30.662Z,1.60
2019-05-25T00:20:57.811Z,1.70
2019-05-25T00:23:24.921Z,1.70
2019-05-25T00:25:52.132Z,2.00
2019-05-25T00:28:19.283Z,2.07
2019-05-25T00:30:46.946Z,1.60
2019-05-25T00:33:14.275Z,2.33
2019-05-25T00:35:42.560Z,2.00
2019-05-25T00:38:09.574Z,2.07
2019-05-25T00:40:36.707Z,1.73
2019-05-25T00:43:04.337Z,1.80
2019-05-25T00:45:31.375Z,1.70
2019-05-25T00:47:58.714Z,2.10
2019-05-25T00:50:25.821Z,2.40
2019-05-25T00:52:53.002Z,2.00
2019-05-25T00:55:20.090Z,1.80
2019-05-25T00:57:47.634Z,2.37
2019-05-25T01:00:15.240Z,2.43
2019-05-25T01:02:42.469Z,2.00
2019-05-25T01:05:09.746Z,2.33
2019-05-25T01:07:36.999Z,2.47
2019-05-25T01:10:05.241Z,2.33
2019-05-25T01:12:32.261Z,2.03
2019-05-25T01:14:59.504Z,2.10
2019-05-25T01:17:26.805Z,2.27
2019-05-25T01:19:53.975Z,2.40
2019-05-25T01:22:21.049Z,2.87
2019-05-25T01:24:48.183Z,2.47
2019-05-25T01:27:15.618Z,2.30
2019-05-25T01:29:42.748Z,2.30
2019-05-25T01:32:10.027Z,2.30
2019-05-25T01:34:37.130Z,2.33
2019-05-25T01:37:04.367Z,2.67
2019-05-25T01:39:31.621Z,2.63
2019-05-25T01:41:58.889Z,2.80
2019-05-25T01:44:26.454Z,2.50
2019-05-25T01:46:53.720Z,2.40
2019-05-25T01:49:20.822Z,2.67
2019-05-25T01:51:47.870Z,2.60
2019-05-25T01:54:15.287Z,2.97
2019-05-25T01:56:42.909Z,2.50
2019-05-25T01:59:10.331Z,2.70
2019-05-25T02:01:37.452Z,2.70
2019-05-25T02:04:05.650Z,2.93
2019-05-25T02:06:32.885Z,2.63
2019-05-25T02:09:00.221Z,2.80
2019-05-25T02:11:27.476Z,3.17
2019-05-25T02:13:54.907Z,2.83
2019-05-25T02:16:22.066Z,2.77
2019-05-25T02:18:49.175Z,3.37
2019-05-25T02:21:16.253Z,2.80
2019-05-25T02:23:43.455Z,3.20
2019-05-25T02:26:10.703Z,2.93
2019-05-25T02:28:38.486Z,3.07
2019-05-25T02:31:05.622Z,3.10
2019-05-25T02:33:32.831Z,2.90
2019-05-25T02:36:00.136Z,2.93
2019-05-25T02:38:27.275Z,3.17
2019-05-25T02:40:54.787Z,3.77
2019-05-25T02:43:21.977Z,2.90
2019-05-25T02:45:49.155Z,3.10
2019-05-25T02:48:16.387Z,3.13
2019-05-25T02:50:44.630Z,3.63
2019-05-25T02:53:11.977Z,3.53
2019-05-25T02:55:39.118Z,3.90
2019-05-25T02:58:06.466Z,3.20
2019-05-25T03:00:34.062Z,3.80
2019-05-25T03:03:01.827Z,3.20
2019-05-25T03:05:29.087Z,3.73
2019-05-25T03:07:56.816Z,3.67
2019-05-25T03:10:24.063Z,3.50
2019-05-25T03:12:51.777Z,4.00
2019-05-25T03:15:19.037Z,4.07
2019-05-25T03:17:46.276Z,4.00
2019-05-25T03:20:14.423Z,3.63
2019-05-25T03:22:41.778Z,3.83
2019-05-25T03:25:09.042Z,3.40
2019-05-25T03:27:36.194Z,3.90
2019-05-25T03:30:05.016Z,3.60
2019-05-25T03:32:32.158Z,3.43
2019-05-25T03:34:59.314Z,4.30
2019-05-25T03:37:26.470Z,3.60
2019-05-25T03:39:53.583Z,4.20
2019-05-25T03:42:20.771Z,3.63
2019-05-25T03:44:47.891Z,3.30
2019-05-25T03:47:14.903Z,3.50
2019-05-25T03:49:41.986Z,4.23
2019-05-25T03:52:09.215Z,3.50
2019-05-25T03:54:36.348Z,4.30
2019-05-25T03:57:03.591Z,4.17
2019-05-25T03:59:30.784Z,3.70
2019-05-25T04:01:57.910Z,4.43
2019-05-25T04:04:25.028Z,4.03
2019-05-25T04:06:52.274Z,4.40
2019-05-25T04:09:19.399Z,4.03
2019-05-25T04:11:46.628Z,5.30
2019-05-25T04:14:13.886Z,4.87
2019-05-25T04:16:41.127Z,3.83
2019-05-25T04:19:08.202Z,3.80
2019-05-25T04:21:35.504Z,4.37
2019-05-25T04:24:03.051Z,4.60
2019-05-25T04:26:31.176Z,3.77
2019-05-25T04:28:58.464Z,4.00
2019-05-25T04:31:25.832Z,4.17
2019-05-25T04:33:53.282Z,4.10
2019-05-25T04:36:20.595Z,4.50
2019-05-25T04:38:47.767Z,3.53
2019-05-25T04:41:15.026Z,4.37
2019-05-25T04:43:42.129Z,4.10
2019-05-25T04:46:09.335Z,4.07
2019-05-25T04:48:36.483Z,4.50
2019-05-25T04:51:03.745Z,4.20
2019-05-25T04:53:31.206Z,4.03
2019-05-25T04:55:58.390Z,4.53
2019-05-25T04:58:25.547Z,4.27
2019-05-25T05:00:53.144Z,5.17
2019-05-25T05:03:20.259Z,4.40
2019-05-25T05:05:47.298Z,5.77
2019-05-25T05:08:14.471Z,4.70
2019-05-25T05:10:42.139Z,4.40
2019-05-25T05:13:09.370Z,3.90
2019-05-25T05:15:36.575Z,4.57
2019-05-25T05:18:03.895Z,4.23
2019-05-25T05:20:31.094Z,3.77
2019-05-25T05:22:58.216Z,4.90
2019-05-25T05:25:25.478Z,4.00
2019-05-25T05:27:52.511Z,5.10
2019-05-25T05:30:29.881Z,4.37
2019-05-25T05:32:57.316Z,4.13
2019-05-25T05:35:24.539Z,4.30
2019-05-25T05:37:52.014Z,6.43
2019-05-25T05:40:19.345Z,4.77
2019-05-25T05:42:48.191Z,4.07
2019-05-25T05:45:15.390Z,4.10
2019-05-25T05:47:44.602Z,4.37
2019-05-25T05:50:12.116Z,3.73
2019-05-25T05:52:39.278Z,3.43
2019-05-25T05:55:10.701Z,3.70
2019-05-25T05:57:38.083Z,3.00
2019-05-25T06:00:06.133Z,3.53
2019-05-25T06:02:33.218Z,3.47
2019-05-25T06:05:00.427Z,2.80
2019-05-25T06:07:27.704Z,2.93
2019-05-25T06:09:55.135Z,2.70
2019-05-25T06:12:23.797Z,2.97
2019-05-25T06:14:50.960Z,2.90
2019-05-25T06:17:18.417Z,2.97
2019-05-25T06:19:45.607Z,3.47
2019-05-25T06:22:12.838Z,3.37
2019-05-25T06:24:40.201Z,2.27
2019-05-25T06:27:07.475Z,3.20
2019-05-25T06:29:34.959Z,2.60
2019-05-25T06:32:02.283Z,2.70
2019-05-25T06:34:29.531Z,2.37
2019-05-25T06:36:56.786Z,2.47
2019-05-25T06:39:24.670Z,2.33
2019-05-25T06:41:52.171Z,2.10
2019-05-25T06:44:19.556Z,2.30
2019-05-25T06:46:46.574Z,2.13
2019-05-25T06:49:13.707Z,2.00
2019-05-25T06:51:40.971Z,2.80
2019-05-25T06:54:08.247Z,2.40
2019-05-25T06:56:35.404Z,2.50
2019-05-25T06:59:02.650Z,2.83
2019-05-25T07:01:29.847Z,2.47
2019-05-25T07:03:57.014Z,2.83
2019-05-25T07:06:24.167Z,2.30
2019-05-25T07:08:51.295Z,3.00
2019-05-25T07:11:18.438Z,2.37
2019-05-25T07:13:45.664Z,2.10
2019-05-25T07:16:12.826Z,2.40
2019-05-25T07:18:39.983Z,2.60
2019-05-25T07:21:08.229Z,2.43
2019-05-25T07:23:35.344Z,2.27
2019-05-25T07:26:02.602Z,2.27
2019-05-25T07:28:31.178Z,2.40
2019-05-25T07:30:58.368Z,2.37
2019-05-25T07:33:25.939Z,2.20
2019-05-25T07:35:53.409Z,2.50
2019-05-25T07:38:20.643Z,2.43
2019-05-25T07:40:47.935Z,2.43
2019-05-25T07:43:15.222Z,2.70
2019-05-25T07:45:42.640Z,4.03
2019-05-25T07:48:09.824Z,2.80
2019-05-25T07:50:37.103Z,2.63
2019-05-25T07:53:04.376Z,2.80
2019-05-25T07:55:31.897Z,2.50
2019-05-25T07:58:15.289Z,2.50
2019-05-25T08:00:28.226Z,2.87
2019-05-25T08:02:55.339Z,2.77
2019-05-25T08:05:22.395Z,3.00
2019-05-25T08:07:49.775Z,2.80
2019-05-25T08:10:17.324Z,2.57
2019-05-25T08:12:44.240Z,2.70
2019-05-25T08:15:11.856Z,2.67
2019-05-25T08:17:38.883Z,2.00
2019-05-25T08:20:06.317Z,2.20
2019-05-25T08:22:33.379Z,2.60
2019-05-25T08:25:00.410Z,2.27
2019-05-25T08:27:27.352Z,2.00
2019-05-25T08:29:54.276Z,2.03
2019-05-25T08:32:21.231Z,2.87
2019-05-25T08:34:48.138Z,2.60
2019-05-25T08:37:15.030Z,2.93
2019-05-25T08:39:41.962Z,2.80
2019-05-25T08:42:09.237Z,2.60
2019-05-25T08:44:36.167Z,3.07
2019-05-25T08:47:03.252Z,2.90
2019-05-25T08:49:30.304Z,3.13
2019-05-25T08:51:57.221Z,2.70
2019-05-25T08:54:24.132Z,2.83
2019-05-25T08:56:51.371Z,2.70
2019-05-25T08:59:18.387Z,3.33
2019-05-25T09:01:45.354Z,3.00
2019-05-25T09:04:12.444Z,2.80
2019-05-25T09:06:39.334Z,2.43
2019-05-25T09:09:06.630Z,2.50
2019-05-25T09:11:33.640Z,2.47
2019-05-25T09:14:00.575Z,2.70
2019-05-25T09:16:27.441Z,2.60
2019-05-25T09:18:54.447Z,2.80
2019-05-25T09:21:21.321Z,2.60
2019-05-25T09:23:48.926Z,2.80
2019-05-25T09:26:15.988Z,3.33
2019-05-25T09:28:43.004Z,2.87
2019-05-25T09:31:09.861Z,2.40
2019-05-25T09:33:36.873Z,2.70
2019-05-25T09:36:03.956Z,2.90
2019-05-25T09:38:30.888Z,2.80
2019-05-25T09:40:57.821Z,2.50
2019-05-25T09:43:24.892Z,3.27
2019-05-25T09:45:52.818Z,2.90
2019-05-25T09:48:19.763Z,2.90
2019-05-25T09:50:46.648Z,2.70
2019-05-25T09:53:13.979Z,2.33
2019-05-25T09:55:40.886Z,2.60
2019-05-25T09:58:07.896Z,3.10
2019-05-25T10:00:39.738Z,2.73
2019-05-25T10:03:04.097Z,3.40
2019-05-25T10:05:31.186Z,2.97
2019-05-25T10:07:58.298Z,2.87
2019-05-25T10:10:25.481Z,2.53
2019-05-25T10:12:52.452Z,2.63
2019-05-25T10:15:19.589Z,2.80
2019-05-25T10:17:46.754Z,2.77
2019-05-25T10:20:13.925Z,2.63
2019-05-25T10:22:40.882Z,3.00
2019-05-25T10:25:09.085Z,2.53
2019-05-25T10:27:36.169Z,2.50
2019-05-25T10:30:05.874Z,2.40
2019-05-25T10:32:32.901Z,3.17
2019-05-25T10:34:59.894Z,2.40
2019-05-25T10:37:27.063Z,2.77
2019-05-25T10:39:53.998Z,2.50
2019-05-25T10:42:21.249Z,2.07
2019-05-25T10:44:48.147Z,3.03
2019-05-25T10:47:15.029Z,2.30
2019-05-25T10:49:41.947Z,2.37
2019-05-25T10:52:08.819Z,3.30
2019-05-25T10:54:36.060Z,2.70
2019-05-25T10:57:03.193Z,2.73
2019-05-25T10:59:30.155Z,2.60
2019-05-25T11:01:57.163Z,2.30
2019-05-25T11:04:24.141Z,2.60
2019-05-25T11:06:51.039Z,2.50
2019-05-25T11:09:18.049Z,2.63
2019-05-25T11:11:44.956Z,2.30
2019-05-25T11:14:11.960Z,2.47
2019-05-25T11:16:38.847Z,2.27
2019-05-25T11:19:05.846Z,2.80
2019-05-25T11:21:33.074Z,2.37
2019-05-25T11:24:00.053Z,3.10
2019-05-25T11:26:26.953Z,2.10
2019-05-25T11:28:53.857Z,2.20
2019-05-25T11:31:20.820Z,2.30
2019-05-25T11:33:47.820Z,2.53
2019-05-25T11:36:14.755Z,2.47
2019-05-25T11:38:41.670Z,2.27
2019-05-25T11:41:08.659Z,3.10
2019-05-25T11:43:35.559Z,3.97
2019-05-25T11:46:02.653Z,2.40
2019-05-25T11:48:29.549Z,2.63
2019-05-25T11:50:56.463Z,3.03
2019-05-25T11:53:23.358Z,2.17
2019-05-25T11:55:50.367Z,2.40
2019-05-25T11:58:17.230Z,2.53
2019-05-25T12:00:44.313Z,3.20
2019-05-25T12:03:12.253Z,2.27
2019-05-25T12:05:39.294Z,2.27
2019-05-25T12:08:06.288Z,1.80
2019-05-25T12:10:33.243Z,2.23
2019-05-25T12:13:00.763Z,2.30
2019-05-25T12:15:28.036Z,1.87
2019-05-25T12:17:55.102Z,2.07
2019-05-25T12:20:22.200Z,2.87
2019-05-25T12:22:49.187Z,2.37
2019-05-25T12:25:18.197Z,2.57
2019-05-25T12:27:48.868Z,2.70
2019-05-25T12:30:16.674Z,2.20
2019-05-25T12:32:44.279Z,2.57
2019-05-25T12:35:11.738Z,2.37
2019-05-25T12:37:38.614Z,2.67
2019-05-25T12:40:05.943Z,2.20
2019-05-25T12:42:32.928Z,2.23
2019-05-25T12:44:59.975Z,2.20
2019-05-25T12:47:27.093Z,1.80
2019-05-25T12:49:54.219Z,2.03
2019-05-25T12:52:21.228Z,2.80
2019-05-25T12:54:48.142Z,2.40
2019-05-25T12:57:16.558Z,2.30
2019-05-25T12:59:43.530Z,1.80
2019-05-25T13:02:10.461Z,2.37
2019-05-25T13:04:37.490Z,2.20
2019-05-25T13:07:04.638Z,1.70
2019-05-25T13:09:31.658Z,1.33
2019-05-25T13:11:58.698Z,1.80
2019-05-25T13:14:26.207Z,1.70
2019-05-25T13:16:53.141Z,2.10
2019-05-25T13:19:20.043Z,1.53
2019-05-25T13:21:46.932Z,1.70
2019-05-25T13:24:14.252Z,1.80
2019-05-25T13:26:41.261Z,1.90
2019-05-25T13:29:08.152Z,1.70
2019-05-25T13:31:35.347Z,8.27
2019-05-25T13:34:02.422Z,2.10
2019-05-25T13:36:29.378Z,1.80
2019-05-25T13:38:56.432Z,2.23
2019-05-25T13:41:23.390Z,2.10
2019-05-25T13:43:50.380Z,2.23
2019-05-25T13:46:17.379Z,2.00
2019-05-25T13:48:44.493Z,1.80
2019-05-25T13:51:11.510Z,1.87
2019-05-25T13:53:38.644Z,2.23
2019-05-25T13:56:05.616Z,1.83
2019-05-25T13:58:32.516Z,1.90
2019-05-25T14:00:59.490Z,1.60
2019-05-25T14:03:26.889Z,2.33
2019-05-25T14:05:53.951Z,2.47
2019-05-25T14:08:20.987Z,1.60
2019-05-25T14:10:47.872Z,1.60
2019-05-25T14:13:14.774Z,1.80
2019-05-25T14:15:41.826Z,1.67
2019-05-25T14:18:08.734Z,1.93
2019-05-25T14:20:35.666Z,2.53
2019-05-25T14:23:02.630Z,2.10
2019-05-25T14:25:29.547Z,1.70
2019-05-25T14:27:56.427Z,1.60
2019-05-25T14:30:24.597Z,1.43
2019-05-25T14:32:51.481Z,1.53
2019-05-25T14:35:18.504Z,1.50
2019-05-25T14:37:45.467Z,1.90
2019-05-25T14:40:12.548Z,1.60
2019-05-25T14:42:39.654Z,1.50
2019-05-25T14:45:07.409Z,1.60
2019-05-25T14:47:34.432Z,1.50
2019-05-25T14:50:01.489Z,1.70
2019-05-25T14:52:28.497Z,1.77
2019-05-25T14:54:55.490Z,2.10
2019-05-25T14:57:22.361Z,1.60
2019-05-25T14:59:49.314Z,1.77
2019-05-25T15:02:16.238Z,1.90
2019-05-25T15:04:43.193Z,1.50
2019-05-25T15:07:10.155Z,1.53
2019-05-25T15:09:37.589Z,1.73
2019-05-25T15:12:04.953Z,1.40
2019-05-25T15:14:31.830Z,1.67
2019-05-25T15:16:58.953Z,1.93
2019-05-25T15:19:26.582Z,1.93
2019-05-25T15:21:53.848Z,2.07
2019-05-25T15:24:21.116Z,2.03
2019-05-25T15:26:48.055Z,1.70
2019-05-25T15:29:14.970Z,2.00
2019-05-25T15:31:42.024Z,1.87
2019-05-25T15:34:09.020Z,2.00
2019-05-25T15:36:36.173Z,1.70
2019-05-25T15:39:05.761Z,1.73
2019-05-25T15:41:32.640Z,1.93
2019-05-25T15:43:59.540Z,2.00
2019-05-25T15:46:26.426Z,2.00
2019-05-25T15:48:53.314Z,2.17
2019-05-25T15:51:20.185Z,1.90
2019-05-25T15:53:47.073Z,1.93
2019-05-25T15:56:14.034Z,1.83
2019-05-25T15:58:40.993Z,1.67
2019-05-25T16:01:08.098Z,1.87
2019-05-25T16:03:35.072Z,1.70
2019-05-25T16:06:02.019Z,2.37
2019-05-25T16:08:28.905Z,1.40
2019-05-25T16:10:55.870Z,2.77
2019-05-25T16:13:22.844Z,1.70
2019-05-25T16:15:49.988Z,1.63
2019-05-25T16:18:16.957Z,2.17
2019-05-25T16:20:43.897Z,1.90
2019-05-25T16:23:11.188Z,1.90
2019-05-25T16:25:38.515Z,2.03
2019-05-25T16:28:05.408Z,1.90
2019-05-25T16:30:32.496Z,2.23
2019-05-25T16:33:11.726Z,2.00
2019-05-25T16:35:29.216Z,1.80
2019-05-25T16:37:56.330Z,2.23
2019-05-25T16:40:23.736Z,1.87
2019-05-25T16:42:50.641Z,1.87
2019-05-25T16:45:18.063Z,1.70
2019-05-25T16:47:45.089Z,1.73
2019-05-25T16:50:14.840Z,1.50
2019-05-25T16:52:41.669Z,2.20
2019-05-25T16:55:08.797Z,2.30
2019-05-25T16:57:35.831Z,2.60
2019-05-25T17:00:03.754Z,1.70
2019-05-25T17:02:31.168Z,1.97
2019-05-25T17:04:58.302Z,1.80
2019-05-25T17:07:25.391Z,1.80
2019-05-25T17:09:52.561Z,2.10
2019-05-25T17:12:19.574Z,1.80
2019-05-25T17:14:46.780Z,1.70
2019-05-25T17:17:13.905Z,1.67
2019-05-25T17:19:41.331Z,1.60
2019-05-25T17:22:08.476Z,1.70
2019-05-25T17:24:35.672Z,2.83
2019-05-25T17:27:02.973Z,1.80
2019-05-25T17:29:30.293Z,2.57
2019-05-25T17:31:57.564Z,1.90
2019-05-25T17:34:24.858Z,1.90
2019-05-25T17:36:51.935Z,2.20
2019-05-25T17:39:19.080Z,2.50
2019-05-25T17:41:47.292Z,1.83
2019-05-25T17:44:14.446Z,1.80
2019-05-25T17:46:41.728Z,1.60
2019-05-25T17:49:14.990Z,1.77
2019-05-25T17:51:43.381Z,1.87
2019-05-25T17:54:10.599Z,1.67
2019-05-25T17:56:40.373Z,1.90
2019-05-25T17:59:07.821Z,1.83
2019-05-25T18:01:35.082Z,1.70
2019-05-25T18:04:07.328Z,1.57
2019-05-25T18:06:31.469Z,2.10
2019-05-25T18:08:58.601Z,1.70
2019-05-25T18:11:25.727Z,1.90
2019-05-25T18:13:52.999Z,2.30
2019-05-25T18:16:20.137Z,1.73
2019-05-25T18:18:47.666Z,2.20
2019-05-25T18:21:14.926Z,1.70
2019-05-25T18:23:42.167Z,1.80
2019-05-25T18:26:09.516Z,1.77
2019-05-25T18:28:36.732Z,1.70
2019-05-25T18:31:04.055Z,1.90
2019-05-25T18:33:31.410Z,2.00
2019-05-25T18:35:58.707Z,1.70
2019-05-25T18:38:25.945Z,1.80
2019-05-25T18:40:53.572Z,1.80
2019-05-25T18:43:20.950Z,1.83
2019-05-25T18:45:48.194Z,1.70
2019-05-25T18:48:15.345Z,1.70
2019-05-25T18:50:42.659Z,2.20
2019-05-25T18:53:09.881Z,1.60
2019-05-25T18:55:37.454Z,1.70
2019-05-25T18:58:04.684Z,1.73
2019-05-25T19:00:31.960Z,1.70
2019-05-25T19:02:59.278Z,2.27
2019-05-25T19:05:26.412Z,2.00
2019-05-25T19:07:53.511Z,1.73
2019-05-25T19:10:21.048Z,2.60
2019-05-25T19:12:48.303Z,6.90
2019-05-25T19:15:15.967Z,7.20
2019-05-25T19:17:43.549Z,5.50
2019-05-25T19:20:10.956Z,3.80
2019-05-25T19:22:38.204Z,2.03
2019-05-25T19:25:06.406Z,1.70
2019-05-25T19:27:33.453Z,2.00
2019-05-25T19:30:00.567Z,1.60
2019-05-25T19:32:27.623Z,1.93
2019-05-25T19:34:59.706Z,2.10
2019-05-25T19:37:23.684Z,1.73
2019-05-25T19:39:50.779Z,1.90
2019-05-25T19:42:21.098Z,1.80
2019-05-25T19:44:48.436Z,1.80
2019-05-25T19:47:18.742Z,1.80
2019-05-25T19:49:48.586Z,1.83
2019-05-25T19:52:16.971Z,1.97
2019-05-25T19:54:46.167Z,1.70
2019-05-25T19:57:13.961Z,1.83
2019-05-25T19:59:45.014Z,1.93
2019-05-25T20:02:16.649Z,2.50
2019-05-25T20:05:15.845Z,2.30
2019-05-25T20:07:32.641Z,2.10
2019-05-25T20:09:59.554Z,1.80
2019-05-25T20:12:26.781Z,1.90
2019-05-25T20:14:53.651Z,2.17
2019-05-25T20:17:20.906Z,2.10
2019-05-25T20:19:47.844Z,1.97
2019-05-25T20:22:15.236Z,2.40
2019-05-25T20:24:42.291Z,2.53
2019-05-25T20:27:09.464Z,2.67
2019-05-25T20:29:36.525Z,2.40
2019-05-25T20:32:03.674Z,2.73
2019-05-25T20:34:30.598Z,3.33
2019-05-25T20:36:57.534Z,3.00
2019-05-25T20:39:24.552Z,3.07
2019-05-25T20:41:51.701Z,3.13
2019-05-25T20:44:18.968Z,2.50
2019-05-25T20:46:46.239Z,3.10
2019-05-25T20:49:14.443Z,3.30
2019-05-25T20:51:41.829Z,2.90
2019-05-25T20:54:09.341Z,3.13
2019-05-25T20:56:36.539Z,2.93
2019-05-25T20:59:03.918Z,2.60
2019-05-25T21:01:31.119Z,2.70
2019-05-25T21:03:58.284Z,2.93
2019-05-25T21:06:25.692Z,2.93
2019-05-25T21:08:52.829Z,3.40
2019-05-25T21:11:20.058Z,3.00
2019-05-25T21:13:47.374Z,4.73
2019-05-25T21:16:14.674Z,4.90
2019-05-25T21:18:41.864Z,4.70
2019-05-25T21:21:09.113Z,3.33
2019-05-25T21:23:36.435Z,3.50
2019-05-25T21:26:03.663Z,2.77
2019-05-25T21:28:30.878Z,2.90
2019-05-25T21:30:57.985Z,2.63
2019-05-25T21:33:25.164Z,2.63
2019-05-25T21:36:06.697Z,2.70
2019-05-25T21:38:21.531Z,3.27
2019-05-25T21:40:48.826Z,2.90
2019-05-25T21:43:15.979Z,2.90
2019-05-25T21:45:43.216Z,3.70
2019-05-25T21:48:10.495Z,3.30
2019-05-25T21:50:37.553Z,2.77
2019-05-25T21:53:04.783Z,2.83
2019-05-25T21:55:31.772Z,2.87
2019-05-25T21:57:59.055Z,3.77
2019-05-25T22:00:28.693Z,3.10
2019-05-25T22:02:58.921Z,3.23
2019-05-25T22:05:26.113Z,3.80
2019-05-25T22:07:53.338Z,4.23
2019-05-25T22:10:20.709Z,3.80
2019-05-25T22:12:48.029Z,4.03
2019-05-25T22:15:15.557Z,4.20
2019-05-25T22:17:42.804Z,3.60
2019-05-25T22:20:11.547Z,4.70
2019-05-25T22:22:38.922Z,3.37
2019-05-25T22:25:07.729Z,3.70
2019-05-25T22:27:36.078Z,4.60
2019-05-25T22:30:04.146Z,4.67
2019-05-25T22:32:31.371Z,3.80
2019-05-25T22:34:58.565Z,3.60
2019-05-25T22:37:25.796Z,4.00
2019-05-25T22:39:53.072Z,4.00
2019-05-25T22:42:20.634Z,3.43
2019-05-25T22:44:47.851Z,4.03
2019-05-25T22:47:14.913Z,3.40
2019-05-25T22:49:42.450Z,3.60
2019-05-25T22:52:09.728Z,4.30
2019-05-25T22:54:36.787Z,3.97
2019-05-25T22:57:05.024Z,4.67
2019-05-25T22:59:32.306Z,4.60
2019-05-25T23:01:59.674Z,4.30
2019-05-25T23:04:26.934Z,5.10
2019-05-25T23:06:58.221Z,4.40
2019-05-25T23:09:23.360Z,4.17
2019-05-25T23:11:50.607Z,4.67
2019-05-25T23:14:17.629Z,4.20
2019-05-25T23:16:44.672Z,5.40
2019-05-25T23:19:11.875Z,4.93
2019-05-25T23:21:39.541Z,4.77
2019-05-25T23:24:06.594Z,4.60
2019-05-25T23:26:33.924Z,5.07
2019-05-25T23:29:01.149Z,5.00
2019-05-25T23:31:28.372Z,4.77
2019-05-25T23:33:55.684Z,5.10
2019-05-25T23:36:22.937Z,4.40
2019-05-25T23:38:51.154Z,4.87
2019-05-25T23:41:18.359Z,4.77
2019-05-25T23:43:46.736Z,4.40
2019-05-25T23:46:13.989Z,5.43
2019-05-25T23:48:41.755Z,4.87
2019-05-25T23:51:08.926Z,4.70
2019-05-25T23:53:35.925Z,4.17
2019-05-25T23:56:03.084Z,4.57
2019-05-25T23:58:30.119Z,4.53
